Time;durP1;ratioP1;P1;durP2;ratioP2;P2;SDS_P1;SDS_P2;PMS_P1;PMS_P2;Temp;Humidity;BMP_temperature;BMP_pressure;BME280_temperature;BME280_humidity;BME280_pressure;Samples;Min_cycle;Max_cycle;Signal;HPM_P1;HPM_P2
2022/01/08 00:02:20;;;;;;;9.33;2.47;;;5.50;99.90;;;;;;5091487;28;20179;-66
2022/01/08 00:04:46;;;;;;;10.67;2.00;;;5.10;99.90;;;;;;5091408;28;20175;-65
2022/01/08 00:07:12;;;;;;;8.27;2.30;;;5.10;99.90;;;;;;5091611;28;20200;-65
2022/01/08 00:09:38;;;;;;;14.97;2.30;;;5.10;99.90;;;;;;5091663;28;20163;-65
2022/01/08 00:12:04;;;;;;;8.63;2.27;;;5.00;99.90;;;;;;5091201;28;20183;-66
2022/01/08 00:14:30;;;;;;;14.17;2.17;;;4.00;99.90;;;;;;5091523;28;20167;-66
2022/01/08 00:16:56;;;;;;;11.73;2.63;;;5.00;99.90;;;;;;5091441;28;20178;-65
2022/01/08 00:19:22;;;;;;;10.77;2.70;;;4.90;99.90;;;;;;5091565;28;20286;-66
2022/01/08 00:21:47;;;;;;;9.33;2.90;;;4.90;99.90;;;;;;5091212;28;20537;-66
2022/01/08 00:24:13;;;;;;;9.97;3.40;;;5.00;99.90;;;;;;5091445;28;20176;-66
2022/01/08 00:26:39;;;;;;;15.20;3.60;;;5.00;99.90;;;;;;5091309;28;20179;-66
2022/01/08 00:29:05;;;;;;;14.07;4.00;;;5.10;99.90;;;;;;5106386;28;20181;-66
2022/01/08 00:31:31;;;;;;;12.27;4.07;;;5.10;99.90;;;;;;5111491;28;20330;-65
2022/01/08 00:33:56;;;;;;;14.30;4.30;;;5.20;99.90;;;;;;5111632;28;20337;-66
2022/01/08 00:36:22;;;;;;;17.13;4.37;;;5.30;99.90;;;;;;5111501;28;20693;-66
2022/01/08 00:38:48;;;;;;;11.93;4.50;;;5.40;99.90;;;;;;5099017;28;20224;-67
2022/01/08 00:41:15;;;;;;;29.13;5.37;;;5.50;99.90;;;;;;5097594;28;20657;-68
2022/01/08 00:43:41;;;;;;;15.37;5.00;;;5.50;99.90;;;;;;5111322;28;20181;-68
2022/01/08 00:46:06;;;;;;;14.07;5.40;;;5.50;99.90;;;;;;5102575;28;20175;-68
2022/01/08 00:48:32;;;;;;;18.07;4.63;;;5.60;99.90;;;;;;5090615;28;20258;-68
2022/01/08 00:50:58;;;;;;;14.67;4.90;;;5.60;99.90;;;;;;5090775;28;20207;-68
2022/01/08 00:53:24;;;;;;;16.67;5.30;;;5.60;99.90;;;;;;5109859;28;20183;-68
2022/01/08 00:55:49;;;;;;;16.33;4.77;;;5.60;99.90;;;;;;5094086;28;20184;-68
2022/01/08 00:58:15;;;;;;;19.03;4.40;;;5.60;99.90;;;;;;5090947;28;20168;-68
2022/01/08 01:00:41;;;;;;;20.13;4.73;;;5.60;99.90;;;;;;5090798;28;20239;-68
2022/01/08 01:03:07;;;;;;;10.43;4.50;;;5.70;99.90;;;;;;5090416;28;20576;-68
2022/01/08 01:05:34;;;;;;;17.93;4.17;;;5.70;99.90;;;;;;5090811;28;20174;-68
2022/01/08 01:08:00;;;;;;;16.57;4.57;;;5.80;99.90;;;;;;5090480;28;20665;-68
2022/01/08 01:10:25;;;;;;;17.13;4.10;;;5.80;99.90;;;;;;5090834;28;20176;-68
2022/01/08 01:12:51;;;;;;;15.37;4.43;;;5.80;99.90;;;;;;5103959;28;20616;-68
2022/01/08 01:15:18;;;;;;;14.43;4.27;;;5.80;99.90;;;;;;5110968;28;20179;-68
2022/01/08 01:17:45;;;;;;;13.67;4.10;;;5.80;99.90;;;;;;5090932;28;20198;-69
2022/01/08 01:20:14;;;;;;;14.03;3.40;;;5.90;99.90;;;;;;5090587;28;20207;-69
2022/01/08 01:22:52;;;;;;;12.37;2.87;;;5.90;99.90;;;;;;5090558;28;20191;-68
2022/01/08 01:25:24;;;;;;;15.67;3.10;;;5.90;99.90;;;;;;5094759;28;20160;-69
2022/01/08 01:47:03;;;;;;;18.63;3.27;;;6.10;99.90;;;;;;5093203;28;20664;-60
2022/01/08 01:49:10;;;;;;;12.00;2.77;;;6.10;99.90;;;;;;5085826;28;20227;-66
2022/01/08 01:51:36;;;;;;;13.13;2.73;;;6.00;99.90;;;;;;5093035;28;20179;-66
2022/01/08 01:54:02;;;;;;;12.27;2.33;;;6.00;99.90;;;;;;5094273;28;20200;-66
2022/01/08 01:56:28;;;;;;;9.97;2.40;;;6.00;99.90;;;;;;5093068;28;20168;-64
2022/01/08 01:58:54;;;;;;;19.53;2.53;;;6.00;99.90;;;;;;5094045;28;20255;-64
2022/01/08 02:01:20;;;;;;;9.43;2.53;;;6.00;99.90;;;;;;5094022;28;20638;-64
2022/01/08 02:03:45;;;;;;;22.17;2.60;;;6.00;99.90;;;;;;5094396;28;20768;-64
2022/01/08 02:06:11;;;;;;;9.87;2.33;;;6.00;99.90;;;;;;5105588;28;20730;-65
2022/01/08 02:08:38;;;;;;;13.70;2.57;;;6.10;99.90;;;;;;5114459;28;20228;-65
2022/01/08 02:11:06;;;;;;;13.27;2.50;;;6.10;99.90;;;;;;5114389;28;20175;-65
2022/01/08 02:13:32;;;;;;;11.93;2.57;;;6.10;99.90;;;;;;5114239;28;20181;-64
2022/01/08 02:16:01;;;;;;;8.87;2.50;;;6.10;99.90;;;;;;5102875;28;20172;-64
2022/01/08 02:18:28;;;;;;;13.07;2.20;;;6.10;99.90;;;;;;5093970;28;20187;-64
2022/01/08 02:20:58;;;;;;;19.63;2.37;;;6.00;99.90;;;;;;5093802;28;20252;-66
2022/01/08 02:23:24;;;;;;;11.07;2.57;;;6.00;99.90;;;;;;5093756;28;20183;-65
2022/01/08 02:25:50;;;;;;;10.03;2.87;;;6.00;99.90;;;;;;5101805;28;20183;-65
2022/01/08 02:28:17;;;;;;;21.03;3.27;;;6.00;99.90;;;;;;5113913;28;20281;-65
2022/01/08 02:30:44;;;;;;;10.80;2.60;;;5.90;99.90;;;;;;5113962;28;20175;-65
2022/01/08 02:33:10;;;;;;;11.33;2.93;;;5.80;99.90;;;;;;5102083;28;20176;-65
2022/01/08 02:35:35;;;;;;;11.03;2.60;;;5.80;99.90;;;;;;5092211;28;20186;-65
2022/01/08 02:38:01;;;;;;;8.50;2.87;;;5.80;99.90;;;;;;5093237;28;20222;-65
2022/01/08 02:40:27;;;;;;;17.73;3.00;;;5.70;99.90;;;;;;5101951;28;20218;-65
2022/01/08 02:43:02;;;;;;;17.13;3.33;;;5.80;99.90;;;;;;5105673;28;20172;-66
2022/01/08 02:45:29;;;;;;;15.30;3.17;;;5.80;99.90;;;;;;5092141;28;20262;-66
2022/01/08 02:47:56;;;;;;;14.53;3.00;;;5.80;99.90;;;;;;5093141;28;20569;-65
2022/01/08 02:50:23;;;;;;;18.43;2.73;;;5.80;99.90;;;;;;5093192;28;20184;-66
2022/01/08 02:52:49;;;;;;;9.60;2.80;;;5.80;99.90;;;;;;5093194;28;20509;-67
2022/01/08 02:55:20;;;;;;;10.07;2.77;;;5.80;99.90;;;;;;5093182;28;20217;-65
2022/01/08 02:57:47;;;;;;;20.43;2.93;;;5.80;99.90;;;;;;5093112;28;20251;-67
2022/01/08 03:00:15;;;;;;;16.00;3.20;;;5.90;99.90;;;;;;5092842;28;20248;-67
2022/01/08 03:02:49;;;;;;;19.10;2.70;;;5.80;99.90;;;;;;5093142;28;20157;-66
2022/01/08 03:05:16;;;;;;;14.20;3.17;;;5.80;99.90;;;;;;5092841;28;20176;-66
2022/01/08 03:07:44;;;;;;;15.73;2.73;;;6.00;99.90;;;;;;5092790;28;20172;-66
2022/01/08 03:10:12;;;;;;;11.83;2.67;;;6.10;99.90;;;;;;5092460;28;20248;-66
2022/01/08 03:12:41;;;;;;;13.90;2.40;;;6.10;99.90;;;;;;5092797;28;20221;-66
2022/01/08 03:15:18;;;;;;;12.93;2.60;;;6.20;99.90;;;;;;5092597;28;20591;-66
2022/01/08 03:17:45;;;;;;;15.93;2.30;;;6.40;99.90;;;;;;5092645;28;20201;-67
2022/01/08 03:20:13;;;;;;;8.60;2.53;;;5.30;99.90;;;;;;5092474;28;20256;-67
2022/01/08 03:22:41;;;;;;;12.37;2.37;;;6.60;99.90;;;;;;5092726;28;20176;-67
2022/01/08 03:25:08;;;;;;;14.03;2.60;;;6.60;99.90;;;;;;5092333;28;20710;-67
2022/01/08 03:27:34;;;;;;;9.57;2.30;;;6.70;99.90;;;;;;5091713;28;20219;-67
2022/01/08 03:30:00;;;;;;;25.63;3.23;;;6.70;99.90;;;;;;5092410;28;20664;-67
2022/01/08 03:32:26;;;;;;;19.37;2.63;;;6.80;99.90;;;;;;5092247;28;20164;-67
2022/01/08 03:34:52;;;;;;;13.70;2.53;;;6.80;99.90;;;;;;5093927;28;20176;-67
2022/01/08 03:37:18;;;;;;;13.57;2.20;;;6.80;99.90;;;;;;5099289;28;20168;-67
2022/01/08 03:39:44;;;;;;;10.60;2.53;;;6.80;99.90;;;;;;5091833;28;20238;-67
2022/01/08 03:42:10;;;;;;;9.30;2.10;;;6.80;99.90;;;;;;5092286;28;20168;-67
2022/01/08 03:44:36;;;;;;;12.93;2.87;;;6.80;99.90;;;;;;5091951;28;20249;-67
2022/01/08 03:50:07;;;;;;;12.00;2.67;;;7.00;99.90;;;;;;5069553;28;20266;-67
2022/01/08 03:52:34;;;;;;;18.57;2.10;;;7.10;99.90;;;;;;5069842;28;20172;-67
2022/01/08 03:54:59;;;;;;;10.20;2.10;;;7.20;99.90;;;;;;5079671;28;20195;-67
2022/01/08 03:57:25;;;;;;;12.83;2.10;;;7.30;99.90;;;;;;5092168;28;20179;-67
2022/01/08 03:59:51;;;;;;;10.23;1.83;;;7.30;99.90;;;;;;5092021;28;20201;-67
2022/01/08 04:02:17;;;;;;;13.77;2.67;;;7.30;99.90;;;;;;5091874;28;20233;-67
2022/01/08 04:04:43;;;;;;;15.33;2.80;;;7.40;99.90;;;;;;5092080;28;20665;-67
2022/01/08 04:07:08;;;;;;;11.17;2.07;;;7.40;99.90;;;;;;5091853;28;20514;-67
2022/01/08 04:09:34;;;;;;;8.43;2.03;;;7.40;99.90;;;;;;5091823;28;20167;-67
2022/01/08 04:12:00;;;;;;;16.03;2.47;;;7.50;99.90;;;;;;5091733;28;20172;-66
2022/01/08 04:14:33;;;;;;;20.13;2.60;;;7.50;99.90;;;;;;5091850;28;20181;-66
2022/01/08 04:16:58;;;;;;;18.13;3.17;;;7.50;99.90;;;;;;5091778;28;20646;-66
2022/01/08 04:19:24;;;;;;;12.77;2.40;;;7.50;99.90;;;;;;5091437;28;20247;-66
2022/01/08 04:21:59;;;;;;;19.53;2.43;;;7.50;99.90;;;;;;5091415;28;20263;-66
2022/01/08 04:24:28;;;;;;;18.67;2.53;;;7.60;99.90;;;;;;5091651;28;20266;-66
2022/01/08 04:26:53;;;;;;;16.67;2.90;;;7.60;99.90;;;;;;5091508;28;20275;-66
2022/01/08 04:29:19;;;;;;;12.97;2.40;;;7.60;99.90;;;;;;5091464;28;20207;-66
2022/01/08 04:31:45;;;;;;;14.30;2.40;;;7.70;99.90;;;;;;5091492;28;20634;-66
2022/01/08 04:34:11;;;;;;;22.67;2.73;;;7.70;99.90;;;;;;5091476;28;20183;-66
2022/01/08 04:36:36;;;;;;;17.07;2.83;;;8.30;99.90;;;;;;5091160;28;20211;-66
2022/01/08 04:39:03;;;;;;;10.93;2.03;;;7.70;99.90;;;;;;5091177;28;20207;-66
2022/01/08 04:41:28;;;;;;;19.27;2.77;;;7.70;99.90;;;;;;5091291;28;20184;-67
2022/01/08 04:43:54;;;;;;;13.87;2.50;;;7.70;99.90;;;;;;5094346;28;20183;-66
2022/01/08 04:46:20;;;;;;;18.63;2.80;;;7.70;99.90;;;;;;5091410;28;20642;-66
2022/01/08 04:48:46;;;;;;;11.03;1.87;;;7.70;99.90;;;;;;5091292;28;20533;-66
2022/01/08 04:51:11;;;;;;;18.53;3.07;;;7.70;99.90;;;;;;5091365;28;20645;-66
2022/01/08 04:53:37;;;;;;;15.50;3.07;;;7.80;99.90;;;;;;5091392;28;20565;-66
2022/01/08 04:56:04;;;;;;;20.33;3.00;;;7.70;99.90;;;;;;5090951;28;20179;-66
2022/01/08 04:58:30;;;;;;;16.13;2.40;;;7.70;99.90;;;;;;5090611;28;20181;-67
2022/01/08 05:00:56;;;;;;;10.43;2.20;;;7.70;99.90;;;;;;5091032;28;20233;-66
2022/01/08 05:03:21;;;;;;;25.67;2.80;;;7.70;99.90;;;;;;5091214;28;20175;-66
2022/01/08 05:05:47;;;;;;;18.77;2.70;;;7.70;99.90;;;;;;5091116;28;20255;-66
2022/01/08 05:08:13;;;;;;;29.30;3.40;;;7.70;99.90;;;;;;5091098;28;20696;-66
2022/01/08 05:10:39;;;;;;;23.90;3.30;;;7.80;99.90;;;;;;5091133;28;20172;-66
2022/01/08 05:13:05;;;;;;;32.73;4.17;;;7.80;99.90;;;;;;5091366;28;20180;-67
2022/01/08 05:15:35;;;;;;;24.43;3.43;;;7.80;99.90;;;;;;5093809;28;20187;-66
2022/01/08 05:18:02;;;;;;;19.83;3.33;;;7.80;99.90;;;;;;5109185;28;20167;-66
2022/01/08 05:20:35;;;;;;;28.17;3.97;;;7.90;99.90;;;;;;5095573;28;20312;-66
2022/01/08 05:23:00;;;;;;;26.77;3.57;;;7.90;99.90;;;;;;5090799;28;20783;-66
2022/01/08 05:25:28;;;;;;;23.50;3.53;;;7.90;99.90;;;;;;5090843;28;20255;-66
2022/01/08 05:27:54;;;;;;;25.73;3.20;;;7.90;99.90;;;;;;5089757;28;20179;-67
2022/01/08 05:30:21;;;;;;;25.23;3.60;;;7.90;99.90;;;;;;5090942;28;20172;-66
2022/01/08 05:32:48;;;;;;;20.03;3.43;;;7.90;99.90;;;;;;5090800;28;20638;-67
2022/01/08 05:35:14;;;;;;;20.23;2.80;;;8.00;99.90;;;;;;5090865;28;20634;-67
2022/01/08 05:37:40;;;;;;;25.97;4.07;;;7.90;99.90;;;;;;5090682;28;20253;-67
2022/01/08 05:40:09;;;;;;;21.73;2.47;;;7.90;99.90;;;;;;5090724;28;20238;-67
2022/01/08 05:42:35;;;;;;;29.00;3.30;;;8.00;99.90;;;;;;5090954;28;20638;-67
2022/01/08 05:45:01;;;;;;;19.63;2.97;;;8.00;99.90;;;;;;5090695;28;20180;-67
2022/01/08 05:47:31;;;;;;;16.17;2.03;;;8.00;99.90;;;;;;5090759;28;20172;-67
2022/01/08 05:49:57;;;;;;;24.77;2.50;;;8.00;99.90;;;;;;5090710;28;20703;-67
2022/01/08 05:52:23;;;;;;;10.27;1.93;;;8.00;99.90;;;;;;5090554;28;20259;-67
2022/01/08 05:54:49;;;;;;;14.13;2.00;;;7.90;99.90;;;;;;5090641;28;20270;-68
2022/01/08 05:57:15;;;;;;;14.17;1.73;;;8.00;99.90;;;;;;5090655;28;20176;-65
2022/01/08 05:59:41;;;;;;;12.77;1.60;;;8.00;99.90;;;;;;5090519;28;20203;-63
2022/01/08 06:02:09;;;;;;;13.50;1.60;;;8.00;99.90;;;;;;5090528;28;20168;-64
2022/01/08 06:04:38;;;;;;;16.53;1.70;;;8.00;99.90;;;;;;5090622;28;20196;-69
2022/01/08 06:07:04;;;;;;;15.33;1.80;;;8.00;99.90;;;;;;5090269;28;20168;-68
2022/01/08 06:09:30;;;;;;;14.53;1.53;;;8.00;99.90;;;;;;5091331;28;20335;-68
2022/01/08 06:11:57;;;;;;;9.83;1.60;;;8.00;99.90;;;;;;5092875;28;20210;-67
2022/01/08 06:14:22;;;;;;;12.67;1.70;;;8.00;99.90;;;;;;5108037;28;20259;-67
2022/01/08 06:16:49;;;;;;;10.23;1.67;;;8.10;99.90;;;;;;5114480;28;20211;-68
2022/01/08 06:19:15;;;;;;;13.33;1.87;;;8.10;99.90;;;;;;5101009;28;20187;-68
2022/01/08 06:21:41;;;;;;;12.80;2.00;;;8.10;99.90;;;;;;5093916;28;20194;-68
2022/01/08 06:24:07;;;;;;;12.03;1.50;;;8.10;99.90;;;;;;5103851;28;20645;-68
2022/01/08 06:26:34;;;;;;;15.70;2.20;;;8.20;99.90;;;;;;5114366;28;20629;-67
2022/01/08 06:29:00;;;;;;;14.17;1.90;;;8.20;99.90;;;;;;5114319;28;20304;-67
2022/01/08 06:31:27;;;;;;;12.37;1.90;;;8.20;99.90;;;;;;5114356;28;20175;-67
2022/01/08 06:33:53;;;;;;;18.10;1.80;;;8.20;99.90;;;;;;5104773;28;20175;-67
2022/01/08 06:36:20;;;;;;;15.03;1.90;;;8.20;99.90;;;;;;5093669;28;20164;-67
2022/01/08 06:38:50;;;;;;;16.57;2.23;;;8.20;99.90;;;;;;5093324;28;20302;-67
2022/01/08 06:41:16;;;;;;;10.97;1.53;;;8.30;99.90;;;;;;5093509;28;20199;-67
2022/01/08 06:43:42;;;;;;;12.57;1.30;;;8.30;99.90;;;;;;5093329;28;20179;-67
2022/01/08 06:46:08;;;;;;;13.53;1.70;;;8.30;99.90;;;;;;5093616;28;20172;-67
2022/01/08 06:48:34;;;;;;;17.93;2.03;;;8.30;99.90;;;;;;5093406;28;20179;-67
2022/01/08 06:51:00;;;;;;;16.10;1.73;;;8.30;99.90;;;;;;5093419;28;20168;-67
2022/01/08 06:53:25;;;;;;;14.93;2.67;;;9.50;99.90;;;;;;5093265;28;20537;-67
2022/01/08 06:55:51;;;;;;;17.20;2.00;;;8.30;99.90;;;;;;5093421;28;20584;-67
2022/01/08 06:58:19;;;;;;;22.60;3.10;;;8.20;99.90;;;;;;5093428;28;20183;-67
2022/01/08 07:00:45;;;;;;;11.03;1.93;;;8.40;99.90;;;;;;5092696;28;20243;-65
2022/01/08 07:03:11;;;;;;;20.77;2.40;;;8.30;99.90;;;;;;5093166;28;20218;-66
2022/01/08 07:05:38;;;;;;;20.03;2.50;;;8.40;99.90;;;;;;5092954;28;20202;-66
2022/01/08 07:08:04;;;;;;;22.97;2.57;;;8.40;99.90;;;;;;5093141;28;20168;-67
2022/01/08 07:10:30;;;;;;;14.50;1.77;;;8.40;99.90;;;;;;5092987;28;20188;-66
2022/01/08 07:12:56;;;;;;;16.37;1.97;;;8.40;99.90;;;;;;5095062;28;20187;-68
2022/01/08 07:15:21;;;;;;;14.47;2.80;;;8.40;99.90;;;;;;5111020;28;20175;-67
2022/01/08 07:17:47;;;;;;;18.53;2.37;;;8.40;99.90;;;;;;5108380;28;20173;-67
2022/01/08 07:20:13;;;;;;;13.60;2.17;;;8.40;99.90;;;;;;5092454;28;20223;-68
2022/01/08 07:22:39;;;;;;;16.10;2.30;;;8.40;99.90;;;;;;5092003;28;20329;-67
2022/01/08 07:25:06;;;;;;;19.93;1.90;;;8.50;99.90;;;;;;5092612;28;20649;-68
2022/01/08 07:27:34;;;;;;;21.20;2.90;;;8.50;99.90;;;;;;5092754;28;20199;-66
2022/01/08 07:30:02;;;;;;;18.87;2.40;;;8.50;99.90;;;;;;5097275;28;20175;-67
2022/01/08 07:32:28;;;;;;;19.47;2.30;;;8.60;99.90;;;;;;5112883;28;20629;-67
2022/01/08 07:34:54;;;;;;;17.27;2.07;;;8.60;99.90;;;;;;5113149;27;20255;-67
2022/01/08 07:37:20;;;;;;;14.23;2.00;;;8.60;99.90;;;;;;5112943;28;20182;-67
2022/01/08 07:39:45;;;;;;;20.27;2.63;;;8.60;99.90;;;;;;5110805;28;20732;-67
2022/01/08 07:42:11;;;;;;;26.17;2.70;;;8.70;99.90;;;;;;5112724;28;20171;-68
2022/01/08 07:44:39;;;;;;;10.30;2.33;;;8.70;99.90;;;;;;5112680;28;20634;-69
2022/01/08 07:47:05;;;;;;;9.53;1.30;;;8.70;99.90;;;;;;5094049;28;20263;-69
2022/01/08 07:49:31;;;;;;;7.07;1.17;;;8.80;99.90;;;;;;5092226;28;20184;-69
2022/01/08 07:51:56;;;;;;;13.30;2.37;;;8.80;99.90;;;;;;5097981;28;20220;-67
2022/01/08 07:54:22;;;;;;;9.50;1.87;;;8.90;99.90;;;;;;5112421;28;20168;-67
2022/01/08 07:56:48;;;;;;;19.80;2.20;;;8.80;99.90;;;;;;5112418;28;20171;-68
2022/01/08 07:59:14;;;;;;;17.63;2.10;;;8.90;99.90;;;;;;5112352;28;20187;-67
2022/01/08 08:01:39;;;;;;;15.50;2.70;;;8.90;99.90;;;;;;5110735;28;20668;-67
2022/01/08 08:04:05;;;;;;;18.37;1.87;;;9.00;99.90;;;;;;5112333;28;20167;-67
2022/01/08 08:06:32;;;;;;;19.20;1.80;;;8.90;99.90;;;;;;5105832;28;20634;-67
2022/01/08 08:08:58;;;;;;;18.57;2.00;;;8.90;99.90;;;;;;5091674;28;20172;-67
2022/01/08 08:11:24;;;;;;;13.17;2.03;;;8.90;99.90;;;;;;5091892;28;20175;-65
2022/01/08 08:13:50;;;;;;;15.53;2.00;;;9.00;99.90;;;;;;5091948;28;20505;-67
2022/01/08 08:16:16;;;;;;;10.37;1.57;;;9.00;99.90;;;;;;5091708;28;20175;-67
2022/01/08 08:18:41;;;;;;;11.73;1.93;;;9.00;99.90;;;;;;5101100;28;20168;-68
2022/01/08 08:21:07;;;;;;;17.13;1.97;;;9.00;99.90;;;;;;5091708;28;20758;-67
2022/01/08 08:23:33;;;;;;;13.00;1.77;;;9.10;99.90;;;;;;5091637;28;20187;-67
2022/01/08 08:25:59;;;;;;;19.90;2.20;;;9.10;99.90;;;;;;5090486;28;20178;-67
2022/01/08 08:28:24;;;;;;;16.23;1.70;;;9.00;99.90;;;;;;5108806;28;20185;-67
2022/01/08 08:30:50;;;;;;;11.37;1.50;;;9.00;99.90;;;;;;5111716;28;20663;-67
2022/01/08 08:33:16;;;;;;;13.33;1.70;;;9.10;99.90;;;;;;5110840;28;20167;-67
2022/01/08 08:35:43;;;;;;;11.07;1.50;;;9.10;99.90;;;;;;5110082;28;20169;-67
2022/01/08 08:38:09;;;;;;;12.03;1.43;;;9.10;99.90;;;;;;5111821;28;20227;-67
2022/01/08 08:40:35;;;;;;;13.23;1.47;;;9.20;99.90;;;;;;5111238;28;20272;-67
2022/01/08 08:43:01;;;;;;;9.07;1.70;;;9.30;99.90;;;;;;5091250;28;20240;-66
2022/01/08 08:45:27;;;;;;;11.83;1.73;;;9.20;99.90;;;;;;5091281;28;20172;-67
2022/01/08 08:47:54;;;;;;;12.63;1.90;;;9.10;99.90;;;;;;5108851;28;20594;-63
2022/01/08 08:50:22;;;;;;;12.27;1.40;;;9.10;99.90;;;;;;5095885;28;20279;-66
2022/01/08 08:52:48;;;;;;;9.30;1.97;;;9.10;99.90;;;;;;5108132;28;20179;-66
2022/01/08 08:55:14;;;;;;;10.33;1.23;;;9.10;99.90;;;;;;5107918;28;20531;-66
2022/01/08 08:57:40;;;;;;;9.57;1.30;;;9.20;99.90;;;;;;5091081;28;20218;-66
2022/01/08 09:00:07;;;;;;;8.37;1.30;;;9.20;99.90;;;;;;5090881;28;20678;-66
2022/01/08 09:02:33;;;;;;;12.77;1.53;;;9.20;99.90;;;;;;5091086;28;20216;-65
2022/01/08 09:04:58;;;;;;;9.17;1.40;;;9.20;99.90;;;;;;5089833;28;20180;-66
2022/01/08 09:07:24;;;;;;;6.80;1.17;;;9.30;99.90;;;;;;5091047;28;20705;-65
2022/01/08 09:09:50;;;;;;;12.70;1.27;;;9.30;99.90;;;;;;5090765;28;20288;-65
2022/01/08 09:12:16;;;;;;;6.60;1.10;;;9.30;99.90;;;;;;5090859;28;20168;-64
2022/01/08 09:14:43;;;;;;;6.70;1.20;;;9.30;99.90;;;;;;5090718;28;20230;-64
2022/01/08 09:17:09;;;;;;;2.87;0.90;;;9.30;99.90;;;;;;5090882;28;20168;-64
2022/01/08 09:19:35;;;;;;;4.20;1.07;;;9.30;99.90;;;;;;5090789;28;20215;-68
2022/01/08 09:22:04;;;;;;;10.63;1.33;;;9.40;99.90;;;;;;5095597;28;20205;-64
2022/01/08 09:24:31;;;;;;;3.70;0.60;;;9.40;99.90;;;;;;5104135;28;20175;-69
2022/01/08 09:26:58;;;;;;;6.33;1.10;;;9.40;99.90;;;;;;5111286;28;20251;-68
2022/01/08 09:29:24;;;;;;;2.57;0.70;;;9.30;99.90;;;;;;5110510;28;20638;-69
2022/01/08 09:31:50;;;;;;;3.40;0.80;;;9.30;99.90;;;;;;5111303;28;20262;-68
2022/01/08 09:34:16;;;;;;;8.37;1.20;;;9.40;99.90;;;;;;5097227;28;20172;-68
2022/01/08 09:36:43;;;;;;;7.60;0.80;;;9.40;99.90;;;;;;5097739;28;20683;-68
2022/01/08 09:39:09;;;;;;;5.87;0.73;;;9.40;99.90;;;;;;5102574;28;20243;-67
2022/01/08 09:41:35;;;;;;;6.37;1.10;;;9.40;99.90;;;;;;5102772;28;20258;-67
2022/01/08 09:44:02;;;;;;;5.13;0.70;;;9.40;99.90;;;;;;5110536;28;20195;-67
2022/01/08 09:46:27;;;;;;;6.90;0.63;;;9.40;99.90;;;;;;5115043;28;20176;-66
2022/01/08 09:48:53;;;;;;;3.47;0.43;;;9.50;99.90;;;;;;5113239;28;20168;-67
2022/01/08 09:51:19;;;;;;;5.87;0.63;;;9.40;99.90;;;;;;5115032;28;20162;-67
2022/01/08 09:53:46;;;;;;;2.90;0.40;;;9.50;99.90;;;;;;5105519;27;20184;-67
2022/01/08 09:56:12;;;;;;;4.07;0.60;;;9.50;99.90;;;;;;5094512;28;20224;-68
2022/01/08 09:58:38;;;;;;;1.97;0.40;;;9.50;99.90;;;;;;5094432;28;20251;-68
2022/01/08 10:01:30;;;;;;;7.13;0.97;;;9.60;99.90;;;;;;5094360;28;20288;-67
2022/01/08 10:03:58;;;;;;;2.20;0.40;;;9.60;99.90;;;;;;5103512;28;20689;-67
2022/01/08 10:06:28;;;;;;;4.53;0.73;;;9.60;99.90;;;;;;5107223;28;20180;-68
2022/01/08 10:08:55;;;;;;;3.43;0.57;;;9.60;99.90;;;;;;5097199;28;20172;-61
2022/01/08 10:11:22;;;;;;;7.00;0.77;;;9.60;99.90;;;;;;5103295;28;20176;-61
2022/01/08 10:13:59;;;;;;;4.70;0.70;;;9.60;99.90;;;;;;5105294;28;20172;-61
2022/01/08 10:19:18;;;;;;;3.90;0.53;;;9.70;99.90;;;;;;5113999;28;20190;-61
2022/01/08 10:21:45;;;;;;;4.97;0.77;;;9.70;99.90;;;;;;5114529;28;20221;-61
2022/01/08 10:24:11;;;;;;;3.70;0.53;;;9.70;99.90;;;;;;5097043;28;20208;-60
2022/01/08 10:26:41;;;;;;;3.23;0.60;;;9.70;99.90;;;;;;5093780;28;20265;-70
2022/01/08 10:29:12;;;;;;;4.00;0.80;;;9.70;99.90;;;;;;5094946;28;20176;-59
2022/01/08 10:31:43;;;;;;;3.70;0.60;;;9.70;99.90;;;;;;5113537;28;20183;-61
2022/01/08 10:34:12;;;;;;;3.07;0.50;;;9.70;99.90;;;;;;5102072;28;20710;-59
2022/01/08 10:36:54;;;;;;;2.90;0.43;;;9.70;99.90;;;;;;5111474;28;20633;-60
2022/01/08 10:39:24;;;;;;;1.90;0.40;;;9.80;99.90;;;;;;5107396;28;20224;-59
2022/01/08 10:41:52;;;;;;;2.07;0.60;;;9.80;99.90;;;;;;5102170;28;20189;-59
2022/01/08 10:44:25;;;;;;;1.80;0.40;;;9.70;99.90;;;;;;5113825;28;20171;-59
2022/01/08 10:46:51;;;;;;;1.17;0.40;;;9.70;99.90;;;;;;5113858;28;20167;-59
2022/01/08 10:49:17;;;;;;;2.93;0.50;;;9.80;99.90;;;;;;5097744;28;20208;-65
2022/01/08 10:51:43;;;;;;;1.53;0.97;;;9.80;99.90;;;;;;5093314;28;20654;-63
2022/01/08 10:54:15;;;;;;;3.13;0.50;;;9.80;99.90;;;;;;5093336;28;20225;-64
2022/01/08 10:56:46;;;;;;;3.03;0.57;;;9.80;99.90;;;;;;5092211;28;20176;-64
2022/01/08 10:59:15;;;;;;;1.60;0.40;;;9.80;99.90;;;;;;5092917;28;20261;-64
2022/01/08 11:01:42;;;;;;;2.33;0.63;;;9.80;99.90;;;;;;5093174;28;20266;-65
2022/01/08 11:04:10;;;;;;;3.07;0.40;;;9.90;99.90;;;;;;5093130;28;20180;-65
2022/01/08 11:07:11;;;;;;;2.10;0.50;;;9.90;99.90;;;;;;5093028;28;20179;-64
2022/01/08 11:09:40;;;;;;;1.30;0.40;;;9.90;99.90;;;;;;5049887;28;20188;-65
2022/01/08 11:12:08;;;;;;;4.27;0.40;;;9.90;99.90;;;;;;5093122;28;20164;-64
2022/01/08 11:17:22;;;;;;;1.83;0.47;;;10.00;99.90;;;;;;5111675;28;20182;-64
2022/01/08 11:19:51;;;;;;;1.40;0.40;;;10.00;99.90;;;;;;5101733;28;20203;-64
2022/01/08 11:22:20;;;;;;;3.80;0.50;;;10.00;99.90;;;;;;5097263;28;20262;-65
2022/01/08 11:24:59;;;;;;;1.23;0.40;;;10.00;99.90;;;;;;5099892;28;20328;-64
2022/01/08 11:28:05;;;;;;;2.30;0.50;;;9.90;99.90;;;;;;5112358;28;20205;-64
2022/01/08 11:30:33;;;;;;;1.10;0.30;;;10.00;99.90;;;;;;5108196;28;20676;-64
2022/01/08 11:33:05;;;;;;;1.07;0.30;;;10.00;99.90;;;;;;5092490;28;20176;-65
2022/01/08 11:35:34;;;;;;;0.50;0.50;;;10.00;99.90;;;;;;5092678;28;20176;-64
2022/01/08 11:38:03;;;;;;;0.97;0.37;;;10.00;99.90;;;;;;5092480;28;20219;-64
2022/01/08 11:40:30;;;;;;;0.20;0.20;;;10.20;99.90;;;;;;5096783;28;20211;-65
2022/01/08 11:43:01;;;;;;;0.90;0.20;;;10.10;99.90;;;;;;5104707;28;20194;-63
2022/01/08 11:45:43;;;;;;;0.60;0.20;;;10.20;99.90;;;;;;5099526;28;20650;-63
2022/01/08 11:48:11;;;;;;;2.33;0.40;;;10.20;99.90;;;;;;5092324;28;20164;-59
2022/01/08 11:50:38;;;;;;;1.27;0.20;;;10.20;99.90;;;;;;5092144;28;20175;-62
2022/01/08 11:53:23;;;;;;;0.50;0.13;;;10.30;99.90;;;;;;5092721;28;20221;-63
2022/01/08 11:55:50;;;;;;;2.13;0.30;;;10.40;99.90;;;;;;5109812;28;20259;-62
2022/01/08 11:58:37;;;;;;;3.80;0.40;;;10.40;99.90;;;;;;5112642;28;20175;-62
2022/01/08 12:01:10;;;;;;;5.50;0.83;;;10.50;99.90;;;;;;5110734;28;20260;-63
2022/01/08 12:03:39;;;;;;;7.53;1.43;;;10.60;99.90;;;;;;5099780;28;20254;-62
2022/01/08 12:06:24;;;;;;;12.73;1.37;;;10.70;99.90;;;;;;5092092;28;20560;-62
2022/01/08 12:09:10;;;;;;;7.47;1.17;;;10.80;99.90;;;;;;5091425;28;20599;-62
2022/01/08 12:11:42;;;;;;;8.07;1.30;;;10.90;99.90;;;;;;5090521;28;20184;-62
2022/01/08 12:14:09;;;;;;;16.07;2.23;;;11.00;99.90;;;;;;5098315;28;20200;-62
2022/01/08 12:16:40;;;;;;;19.03;1.97;;;11.00;99.90;;;;;;5091727;28;20175;-62
2022/01/08 12:19:08;;;;;;;8.87;1.20;;;11.30;99.90;;;;;;5091843;28;20167;-62
2022/01/08 12:21:40;;;;;;;14.13;2.27;;;11.40;99.90;;;;;;5091516;28;20815;-62
2022/01/08 12:24:24;;;;;;;15.57;2.33;;;11.50;99.90;;;;;;5105044;28;20174;-62
2022/01/08 12:26:50;;;;;;;14.63;1.43;;;11.40;99.90;;;;;;5100227;28;20179;-62
2022/01/08 12:29:36;;;;;;;13.67;1.90;;;11.60;99.90;;;;;;5090412;28;20178;-61
2022/01/08 12:32:36;;;;;;;24.17;2.90;;;11.50;99.90;;;;;;5091469;28;20278;-61
2022/01/08 12:35:26;;;;;;;32.97;3.70;;;11.60;99.90;;;;;;5083184;28;20211;-61
2022/01/08 12:38:00;;;;;;;28.60;3.40;;;11.60;99.90;;;;;;5102943;28;20645;-61
2022/01/08 12:40:39;;;;;;;31.77;4.00;;;11.50;99.90;;;;;;5111218;28;20221;-62
2022/01/08 12:43:22;;;;;;;17.27;2.57;;;11.50;99.90;;;;;;5090987;28;20207;-63
2022/01/08 12:45:50;;;;;;;27.97;3.70;;;11.50;99.90;;;;;;5110725;28;20178;-63
2022/01/08 12:48:20;;;;;;;28.87;4.83;;;11.50;99.90;;;;;;5109148;28;20178;-63
2022/01/08 12:50:46;;;;;;;40.00;5.10;;;11.40;99.90;;;;;;5111597;28;20246;-63
2022/01/08 12:53:30;;;;;;;43.00;5.13;;;11.40;99.90;;;;;;5107093;28;20285;-63
2022/01/08 12:55:56;;;;;;;44.47;6.27;;;11.40;99.90;;;;;;5091101;28;20245;-63
2022/01/08 12:58:44;;;;;;;37.87;5.07;;;11.40;99.90;;;;;;5091211;28;20524;-63
2022/01/08 13:01:19;;;;;;;47.33;6.77;;;11.30;99.90;;;;;;5091145;28;20204;-64
2022/01/08 13:03:52;;;;;;;47.27;6.47;;;11.20;99.90;;;;;;5090984;28;20308;-64
2022/01/08 13:06:17;;;;;;;44.53;6.93;;;11.10;99.90;;;;;;5099803;28;20179;-64
2022/01/08 13:08:45;;;;;;;45.57;6.47;;;11.00;99.90;;;;;;5111586;28;20550;-64
2022/01/08 13:11:14;;;;;;;46.13;6.77;;;11.00;99.90;;;;;;5110686;28;20175;-64
2022/01/08 13:13:42;;;;;;;51.70;7.23;;;11.00;99.90;;;;;;5093869;28;20179;-64
2022/01/08 13:16:15;;;;;;;57.50;7.37;;;10.90;99.90;;;;;;5090684;28;20202;-64
2022/01/08 13:18:46;;;;;;;46.83;6.70;;;10.90;99.90;;;;;;5089555;28;20195;-63
2022/01/08 13:21:13;;;;;;;46.43;6.20;;;10.80;99.90;;;;;;5098659;28;20246;-64